sensor_id;sensor_type;location;lat;lon;timestamp;pressure;altitude;pressure_sealevel;temperature;humidity
58973;BME280;44750;52.040;7.472;2023-04-26T00:00:47;100212.28;;;5.05;100.00
58973;BME280;44750;52.040;7.472;2023-04-26T00:05:48;100202.84;;;4.89;100.00
58973;BME280;44750;52.040;7.472;2023-04-26T00:10:49;100216.00;;;4.92;100.00
58973;BME280;44750;52.040;7.472;2023-04-26T00:15:50;100209.56;;;4.83;100.00
58973;BME280;44750;52.040;7.472;2023-04-26T00:20:50;100208.47;;;4.86;100.00
58973;BME280;44750;52.040;7.472;2023-04-26T00:25:50;100210.00;;;5.00;100.00
58973;BME280;44750;52.040;7.472;2023-04-26T00:30:50;100202.72;;;4.91;100.00
58973;BME280;44750;52.040;7.472;2023-04-26T00:35:51;100190.66;;;4.85;100.00
58973;BME280;44750;52.040;7.472;2023-04-26T00:40:51;100168.44;;;4.73;100.00
58973;BME280;44750;52.040;7.472;2023-04-26T00:45:51;100179.28;;;4.72;100.00
58973;BME280;44750;52.040;7.472;2023-04-26T00:50:52;100165.78;;;4.62;100.00
58973;BME280;44750;52.040;7.472;2023-04-26T00:55:52;100156.34;;;4.46;100.00
58973;BME280;44750;52.040;7.472;2023-04-26T01:00:53;100168.06;;;4.45;100.00
58973;BME280;44750;52.040;7.472;2023-04-26T01:05:53;100172.31;;;4.48;100.00
58973;BME280;44750;52.040;7.472;2023-04-26T01:10:53;100163.19;;;4.39;100.00
58973;BME280;44750;52.040;7.472;2023-04-26T01:15:54;100169.03;;;4.33;100.00
58973;BME280;44750;52.040;7.472;2023-04-26T01:20:55;100175.00;;;4.37;100.00
58973;BME280;44750;52.040;7.472;2023-04-26T01:25:55;100177.97;;;4.33;100.00
58973;BME280;44750;52.040;7.472;2023-04-26T01:30:55;100176.38;;;4.31;100.00
58973;BME280;44750;52.040;7.472;2023-04-26T01:35:55;100163.88;;;4.20;100.00
58973;BME280;44750;52.040;7.472;2023-04-26T01:40:56;100173.22;;;4.14;100.00
58973;BME280;44750;52.040;7.472;2023-04-26T01:45:56;100181.66;;;4.10;100.00
58973;BME280;44750;52.040;7.472;2023-04-26T01:50:56;100180.78;;;4.21;100.00
58973;BME280;44750;52.040;7.472;2023-04-26T01:56:00;100160.09;;;4.11;100.00
58973;BME280;44750;52.040;7.472;2023-04-26T02:01:09;100173.72;;;4.19;100.00
58973;BME280;44750;52.040;7.472;2023-04-26T02:06:09;100171.56;;;4.13;100.00
58973;BME280;44750;52.040;7.472;2023-04-26T02:11:09;100180.06;;;4.18;100.00
58973;BME280;44750;52.040;7.472;2023-04-26T02:16:09;100180.28;;;4.15;100.00
58973;BME280;44750;52.040;7.472;2023-04-26T02:21:10;100190.03;;;4.16;100.00
58973;BME280;44750;52.040;7.472;2023-04-26T02:26:11;100189.69;;;4.10;100.00
58973;BME280;44750;52.040;7.472;2023-04-26T02:31:11;100190.19;;;4.04;100.00
58973;BME280;44750;52.040;7.472;2023-04-26T02:36:11;100191.53;;;3.98;100.00
58973;BME280;44750;52.040;7.472;2023-04-26T02:41:11;100200.03;;;3.92;100.00
58973;BME280;44750;52.040;7.472;2023-04-26T02:46:12;100193.25;;;3.76;100.00
58973;BME280;44750;52.040;7.472;2023-04-26T02:51:12;100180.00;;;3.75;100.00
58973;BME280;44750;52.040;7.472;2023-04-26T02:56:12;100187.75;;;3.66;100.00
58973;BME280;44750;52.040;7.472;2023-04-26T03:01:12;100181.44;;;3.67;100.00
58973;BME280;44750;52.040;7.472;2023-04-26T03:06:13;100192.75;;;3.71;100.00
58973;BME280;44750;52.040;7.472;2023-04-26T03:11:13;100194.47;;;3.72;100.00
58973;BME280;44750;52.040;7.472;2023-04-26T03:16:13;100194.94;;;3.66;100.00
58973;BME280;44750;52.040;7.472;2023-04-26T03:21:13;100192.28;;;3.55;100.00
58973;BME280;44750;52.040;7.472;2023-04-26T03:26:14;100196.41;;;3.59;100.00
58973;BME280;44750;52.040;7.472;2023-04-26T03:31:14;100176.81;;;3.47;100.00
58973;BME280;44750;52.040;7.472;2023-04-26T03:36:15;100188.25;;;3.49;100.00
58973;BME280;44750;52.040;7.472;2023-04-26T03:41:16;100188.97;;;3.62;100.00
58973;BME280;44750;52.040;7.472;2023-04-26T03:46:16;100180.84;;;3.53;100.00
58973;BME280;44750;52.040;7.472;2023-04-26T03:51:16;100179.63;;;3.45;100.00
58973;BME280;44750;52.040;7.472;2023-04-26T03:56:17;100182.66;;;3.41;100.00
58973;BME280;44750;52.040;7.472;2023-04-26T04:01:17;100173.63;;;3.30;100.00
58973;BME280;44750;52.040;7.472;2023-04-26T04:06:17;100177.16;;;3.31;100.00
58973;BME280;44750;52.040;7.472;2023-04-26T04:11:17;100180.94;;;3.40;100.00
58973;BME280;44750;52.040;7.472;2023-04-26T04:16:18;100190.91;;;3.49;100.00
58973;BME280;44750;52.040;7.472;2023-04-26T04:21:18;100187.28;;;3.50;100.00
58973;BME280;44750;52.040;7.472;2023-04-26T04:26:18;100186.81;;;3.56;100.00
58973;BME280;44750;52.040;7.472;2023-04-26T04:31:18;100168.91;;;3.45;100.00
58973;BME280;44750;52.040;7.472;2023-04-26T04:36:19;100196.66;;;3.67;100.00
58973;BME280;44750;52.040;7.472;2023-04-26T04:41:19;100200.53;;;3.74;100.00
58973;BME280;44750;52.040;7.472;2023-04-26T04:46:19;100205.16;;;3.83;100.00
58973;BME280;44750;52.040;7.472;2023-04-26T04:51:19;100214.41;;;4.02;100.00
58973;BME280;44750;52.040;7.472;2023-04-26T04:56:20;100202.84;;;4.01;100.00
58973;BME280;44750;52.040;7.472;2023-04-26T05:01:20;100220.25;;;4.18;100.00
58973;BME280;44750;52.040;7.472;2023-04-26T05:06:20;100212.56;;;4.14;100.00
58973;BME280;44750;52.040;7.472;2023-04-26T05:11:20;100225.97;;;4.25;100.00
58973;BME280;44750;52.040;7.472;2023-04-26T05:16:20;100234.56;;;4.40;100.00
58973;BME280;44750;52.040;7.472;2023-04-26T05:21:21;100244.63;;;4.59;100.00
58973;BME280;44750;52.040;7.472;2023-04-26T05:26:21;100249.25;;;4.68;100.00
58973;BME280;44750;52.040;7.472;2023-04-26T05:31:21;100239.66;;;4.55;100.00
58973;BME280;44750;52.040;7.472;2023-04-26T05:36:23;100243.47;;;4.41;100.00
58973;BME280;44750;52.040;7.472;2023-04-26T05:41:23;100254.53;;;4.47;100.00
58973;BME280;44750;52.040;7.472;2023-04-26T05:46:23;100265.72;;;4.64;100.00
58973;BME280;44750;52.040;7.472;2023-04-26T05:51:24;100267.28;;;4.66;100.00
58973;BME280;44750;52.040;7.472;2023-04-26T05:56:24;100284.16;;;4.90;100.00
58973;BME280;44750;52.040;7.472;2023-04-26T06:01:24;100284.38;;;4.98;100.00
58973;BME280;44750;52.040;7.472;2023-04-26T06:06:24;100282.78;;;4.95;100.00
58973;BME280;44750;52.040;7.472;2023-04-26T06:11:25;100310.22;;;5.31;100.00
58973;BME280;44750;52.040;7.472;2023-04-26T06:16:25;100318.47;;;5.61;100.00
58973;BME280;44750;52.040;7.472;2023-04-26T06:21:25;100329.53;;;6.00;100.00
58973;BME280;44750;52.040;7.472;2023-04-26T06:26:25;100308.19;;;6.08;100.00
58973;BME280;44750;52.040;7.472;2023-04-26T06:31:25;100309.00;;;6.30;100.00
58973;BME280;44750;52.040;7.472;2023-04-26T06:36:26;100324.28;;;6.70;100.00
58973;BME280;44750;52.040;7.472;2023-04-26T06:41:26;100336.41;;;7.44;100.00
58973;BME280;44750;52.040;7.472;2023-04-26T06:46:26;100308.44;;;7.84;100.00
58973;BME280;44750;52.040;7.472;2023-04-26T06:51:26;100265.09;;;7.48;100.00
58973;BME280;44750;52.040;7.472;2023-04-26T06:56:27;100270.78;;;7.45;100.00
58973;BME280;44750;52.040;7.472;2023-04-26T07:01:27;100262.28;;;7.40;100.00
58973;BME280;44750;52.040;7.472;2023-04-26T07:06:28;100252.09;;;7.34;100.00
58973;BME280;44750;52.040;7.472;2023-04-26T07:11:29;100267.50;;;7.61;100.00
58973;BME280;44750;52.040;7.472;2023-04-26T07:16:30;100255.66;;;7.34;100.00
58973;BME280;44750;52.040;7.472;2023-04-26T07:21:30;100239.91;;;7.00;100.00
58973;BME280;44750;52.040;7.472;2023-04-26T07:26:30;100258.59;;;7.31;100.00
58973;BME280;44750;52.040;7.472;2023-04-26T07:31:31;100264.38;;;7.46;100.00
58973;BME280;44750;52.040;7.472;2023-04-26T07:36:31;100258.00;;;7.47;100.00
58973;BME280;44750;52.040;7.472;2023-04-26T07:41:31;100251.50;;;7.30;100.00
58973;BME280;44750;52.040;7.472;2023-04-26T07:46:32;100277.25;;;7.72;100.00
58973;BME280;44750;52.040;7.472;2023-04-26T07:51:34;100263.38;;;7.67;100.00
58973;BME280;44750;52.040;7.472;2023-04-26T07:56:35;100245.81;;;7.63;100.00
58973;BME280;44750;52.040;7.472;2023-04-26T08:01:36;100277.91;;;7.94;100.00
58973;BME280;44750;52.040;7.472;2023-04-26T08:06:36;100283.50;;;8.20;100.00
58973;BME280;44750;52.040;7.472;2023-04-26T08:11:36;100270.09;;;8.00;100.00
58973;BME280;44750;52.040;7.472;2023-04-26T08:16:36;100274.75;;;8.08;100.00
58973;BME280;44750;52.040;7.472;2023-04-26T08:21:37;100297.47;;;8.71;100.00
58973;BME280;44750;52.040;7.472;2023-04-26T08:26:37;100275.06;;;8.61;100.00
58973;BME280;44750;52.040;7.472;2023-04-26T08:31:37;100289.28;;;8.81;100.00
58973;BME280;44750;52.040;7.472;2023-04-26T08:36:41;100267.53;;;8.64;100.00
58973;BME280;44750;52.040;7.472;2023-04-26T08:41:49;100296.13;;;9.03;100.00
58973;BME280;44750;52.040;7.472;2023-04-26T08:47:03;100310.38;;;9.49;100.00
58973;BME280;44750;52.040;7.472;2023-04-26T08:52:11;100273.97;;;9.17;100.00
58973;BME280;44750;52.040;7.472;2023-04-26T08:57:12;100288.81;;;9.13;100.00
58973;BME280;44750;52.040;7.472;2023-04-26T09:02:20;100338.38;;;10.11;100.00
58973;BME280;44750;52.040;7.472;2023-04-26T09:07:30;100313.09;;;10.54;100.00
58973;BME280;44750;52.040;7.472;2023-04-26T09:12:30;100297.53;;;10.57;100.00
58973;BME280;44750;52.040;7.472;2023-04-26T09:17:33;100292.94;;;10.49;100.00
58973;BME280;44750;52.040;7.472;2023-04-26T09:22:35;100239.81;;;9.52;100.00
58973;BME280;44750;52.040;7.472;2023-04-26T09:27:38;100288.81;;;9.76;100.00
58973;BME280;44750;52.040;7.472;2023-04-26T09:37:52;100256.06;;;9.61;100.00
58973;BME280;44750;52.040;7.472;2023-04-26T09:43:09;100245.22;;;9.52;100.00
58973;BME280;44750;52.040;7.472;2023-04-26T09:48:20;100258.91;;;9.77;100.00
58973;BME280;44750;52.040;7.472;2023-04-26T09:53:40;100273.44;;;10.02;100.00
58973;BME280;44750;52.040;7.472;2023-04-26T10:03:46;100278.00;;;10.87;100.00
58973;BME280;44750;52.040;7.472;2023-04-26T10:08:47;100275.53;;;11.19;100.00
58973;BME280;44750;52.040;7.472;2023-04-26T10:13:49;100224.53;;;10.73;100.00
58973;BME280;44750;52.040;7.472;2023-04-26T10:18:50;100191.59;;;10.35;100.00
58973;BME280;44750;52.040;7.472;2023-04-26T10:23:50;100206.19;;;9.73;100.00
58973;BME280;44750;52.040;7.472;2023-04-26T10:34:17;100192.09;;;9.96;100.00
58973;BME280;44750;52.040;7.472;2023-04-26T10:39:19;100227.13;;;10.06;100.00
58973;BME280;44750;52.040;7.472;2023-04-26T10:44:39;100219.41;;;10.62;100.00
58973;BME280;44750;52.040;7.472;2023-04-26T10:49:44;100227.09;;;11.32;100.00
58973;BME280;44750;52.040;7.472;2023-04-26T10:54:52;100138.22;;;11.11;100.00
58973;BME280;44750;52.040;7.472;2023-04-26T11:05:08;100037.81;;;9.97;100.00
58973;BME280;44750;52.040;7.472;2023-04-26T11:10:08;100113.16;;;10.43;100.00
58973;BME280;44750;52.040;7.472;2023-04-26T11:15:11;100133.75;;;10.28;100.00
58973;BME280;44750;52.040;7.472;2023-04-26T11:20:15;100184.50;;;10.42;100.00
58973;BME280;44750;52.040;7.472;2023-04-26T11:25:15;100094.09;;;10.02;100.00
58973;BME280;44750;52.040;7.472;2023-04-26T11:30:17;100084.00;;;10.12;100.00
58973;BME280;44750;52.040;7.472;2023-04-26T11:35:17;100084.19;;;10.19;100.00
58973;BME280;44750;52.040;7.472;2023-04-26T11:40:22;100056.38;;;9.76;100.00
58973;BME280;44750;52.040;7.472;2023-04-26T11:45:22;100097.69;;;10.11;100.00
58973;BME280;44750;52.040;7.472;2023-04-26T11:50:24;100015.38;;;10.13;100.00
58973;BME280;44750;52.040;7.472;2023-04-26T11:55:29;100010.28;;;10.10;100.00
58973;BME280;44750;52.040;7.472;2023-04-26T12:00:29;100017.72;;;10.08;100.00
58973;BME280;44750;52.040;7.472;2023-04-26T12:05:29;99939.16;;;9.93;100.00
58973;BME280;44750;52.040;7.472;2023-04-26T12:10:33;99949.78;;;9.86;100.00
58973;BME280;44750;52.040;7.472;2023-04-26T12:15:34;100068.47;;;10.14;100.00
58973;BME280;44750;52.040;7.472;2023-04-26T12:20:36;100109.78;;;10.41;100.00
58973;BME280;44750;52.040;7.472;2023-04-26T12:25:38;100007.13;;;10.48;100.00
58973;BME280;44750;52.040;7.472;2023-04-26T12:30:38;100107.44;;;10.96;100.00
58973;BME280;44750;52.040;7.472;2023-04-26T12:35:39;100042.53;;;11.19;100.00
58973;BME280;44750;52.040;7.472;2023-04-26T12:40:39;99959.72;;;11.25;100.00
58973;BME280;44750;52.040;7.472;2023-04-26T12:45:39;99986.59;;;11.43;100.00
58973;BME280;44750;52.040;7.472;2023-04-26T12:50:40;99852.53;;;11.53;99.40
58973;BME280;44750;52.040;7.472;2023-04-26T12:55:40;99940.56;;;12.12;97.47
58973;BME280;44750;52.040;7.472;2023-04-26T13:00:40;99783.63;;;12.09;93.45
58973;BME280;44750;52.040;7.472;2023-04-26T13:05:40;99619.56;;;12.05;90.37
58973;BME280;44750;52.040;7.472;2023-04-26T13:10:41;99709.69;;;12.37;90.49
58973;BME280;44750;52.040;7.472;2023-04-26T13:15:41;99519.63;;;12.09;89.82
58973;BME280;44750;52.040;7.472;2023-04-26T13:20:41;99486.91;;;12.10;89.35
58973;BME280;44750;52.040;7.472;2023-04-26T13:25:42;99336.22;;;11.86;88.48
58973;BME280;44750;52.040;7.472;2023-04-26T13:30:42;99135.03;;;11.34;89.78
58973;BME280;44750;52.040;7.472;2023-04-26T13:35:42;99318.97;;;11.44;92.19
58973;BME280;44750;52.040;7.472;2023-04-26T13:40:42;99438.22;;;11.65;92.85
58973;BME280;44750;52.040;7.472;2023-04-26T13:45:43;99397.22;;;11.75;92.53
58973;BME280;44750;52.040;7.472;2023-04-26T13:50:43;99295.25;;;11.74;91.34
58973;BME280;44750;52.040;7.472;2023-04-26T13:55:43;99107.78;;;11.70;89.94
58973;BME280;44750;52.040;7.472;2023-04-26T14:00:43;99160.72;;;11.66;91.01
58973;BME280;44750;52.040;7.472;2023-04-26T14:05:43;99224.72;;;11.67;92.32
58973;BME280;44750;52.040;7.472;2023-04-26T14:10:44;99206.66;;;11.75;92.64
58973;BME280;44750;52.040;7.472;2023-04-26T14:15:44;99152.00;;;11.43;94.49
58973;BME280;44750;52.040;7.472;2023-04-26T14:20:44;99245.00;;;11.50;95.20
58973;BME280;44750;52.040;7.472;2023-04-26T14:25:44;99393.50;;;12.19;92.73
58973;BME280;44750;52.040;7.472;2023-04-26T14:30:45;99125.16;;;12.25;90.97
58973;BME280;44750;52.040;7.472;2023-04-26T14:35:45;99035.63;;;12.25;90.24
58973;BME280;44750;52.040;7.472;2023-04-26T14:40:45;98971.16;;;12.20;89.45
58973;BME280;44750;52.040;7.472;2023-04-26T14:45:46;98764.38;;;11.91;88.45
58973;BME280;44750;52.040;7.472;2023-04-26T14:50:46;98620.31;;;11.74;87.13
58973;BME280;44750;52.040;7.472;2023-04-26T14:55:53;98713.91;;;11.70;88.07
58973;BME280;44750;52.040;7.472;2023-04-26T15:00:53;98846.75;;;11.83;89.36
58973;BME280;44750;52.040;7.472;2023-04-26T15:05:53;98831.72;;;11.74;90.79
58973;BME280;44750;52.040;7.472;2023-04-26T15:10:54;98925.06;;;11.51;93.09
58973;BME280;44750;52.040;7.472;2023-04-26T15:15:54;98939.50;;;11.59;93.73
58973;BME280;44750;52.040;7.472;2023-04-26T15:20:54;98693.28;;;11.15;93.17
58973;BME280;44750;52.040;7.472;2023-04-26T15:25:54;98769.94;;;11.09;94.01
58973;BME280;44750;52.040;7.472;2023-04-26T15:31:06;98714.25;;;10.80;95.38
58973;BME280;44750;52.040;7.472;2023-04-26T15:36:07;98981.53;;;11.06;97.29
58973;BME280;44750;52.040;7.472;2023-04-26T15:41:07;98902.84;;;10.79;98.02
58973;BME280;44750;52.040;7.472;2023-04-26T15:46:12;98894.56;;;10.52;99.60
58973;BME280;44750;52.040;7.472;2023-04-26T15:51:12;99223.38;;;10.70;100.00
58973;BME280;44750;52.040;7.472;2023-04-26T15:56:16;99178.28;;;10.77;100.00
58973;BME280;44750;52.040;7.472;2023-04-26T16:01:16;99200.63;;;11.01;100.00
58973;BME280;44750;52.040;7.472;2023-04-26T16:06:17;99047.22;;;10.86;99.93
58973;BME280;44750;52.040;7.472;2023-04-26T16:11:17;98837.28;;;10.77;96.86
58973;BME280;44750;52.040;7.472;2023-04-26T16:16:18;98825.69;;;10.97;95.15
58973;BME280;44750;52.040;7.472;2023-04-26T16:21:18;98792.03;;;11.19;93.16
58973;BME280;44750;52.040;7.472;2023-04-26T16:26:18;98608.72;;;11.07;91.57
58973;BME280;44750;52.040;7.472;2023-04-26T16:31:19;98501.69;;;10.97;90.79
58973;BME280;44750;52.040;7.472;2023-04-26T16:36:19;98258.09;;;10.39;90.66
58973;BME280;44750;52.040;7.472;2023-04-26T16:41:20;98456.72;;;10.29;92.53
58973;BME280;44750;52.040;7.472;2023-04-26T16:46:20;98763.50;;;10.62;94.29
58973;BME280;44750;52.040;7.472;2023-04-26T16:51:20;98632.38;;;10.58;93.51
58973;BME280;44750;52.040;7.472;2023-04-26T16:56:20;98578.69;;;10.48;93.55
58973;BME280;44750;52.040;7.472;2023-04-26T17:01:21;98653.81;;;10.52;94.59
58973;BME280;44750;52.040;7.472;2023-04-26T17:06:21;98565.09;;;10.34;95.08
58973;BME280;44750;52.040;7.472;2023-04-26T17:11:21;98745.44;;;10.34;96.96
58973;BME280;44750;52.040;7.472;2023-04-26T17:16:21;98830.31;;;10.33;98.29
58973;BME280;44750;52.040;7.472;2023-04-26T17:21:21;98888.06;;;10.18;100.00
58973;BME280;44750;52.040;7.472;2023-04-26T17:26:22;98890.41;;;10.00;100.00
58973;BME280;44750;52.040;7.472;2023-04-26T17:31:22;98870.00;;;9.97;100.00
58973;BME280;44750;52.040;7.472;2023-04-26T17:36:22;98835.41;;;9.93;100.00
58973;BME280;44750;52.040;7.472;2023-04-26T17:41:22;99025.94;;;9.82;100.00
58973;BME280;44750;52.040;7.472;2023-04-26T17:46:23;99030.56;;;9.66;100.00
58973;BME280;44750;52.040;7.472;2023-04-26T17:51:23;99144.75;;;9.60;100.00
58973;BME280;44750;52.040;7.472;2023-04-26T17:56:23;99262.22;;;9.49;100.00
58973;BME280;44750;52.040;7.472;2023-04-26T18:01:23;99389.22;;;9.41;100.00
58973;BME280;44750;52.040;7.472;2023-04-26T18:06:23;99502.31;;;9.44;100.00
58973;BME280;44750;52.040;7.472;2023-04-26T18:11:24;99595.47;;;9.48;100.00
58973;BME280;44750;52.040;7.472;2023-04-26T18:16:24;99621.69;;;9.31;100.00
58973;BME280;44750;52.040;7.472;2023-04-26T18:21:24;99706.94;;;9.26;100.00
58973;BME280;44750;52.040;7.472;2023-04-26T18:26:25;99727.50;;;9.02;100.00
58973;BME280;44750;52.040;7.472;2023-04-26T18:31:25;99800.91;;;9.14;100.00
58973;BME280;44750;52.040;7.472;2023-04-26T18:36:25;99873.47;;;9.17;100.00
58973;BME280;44750;52.040;7.472;2023-04-26T18:41:26;99897.59;;;9.10;100.00
58973;BME280;44750;52.040;7.472;2023-04-26T18:46:26;99899.78;;;9.07;100.00
58973;BME280;44750;52.040;7.472;2023-04-26T18:51:26;100021.78;;;9.10;100.00
58973;BME280;44750;52.040;7.472;2023-04-26T18:56:27;100015.19;;;9.04;100.00
58973;BME280;44750;52.040;7.472;2023-04-26T19:01:28;100026.84;;;9.05;100.00
58973;BME280;44750;52.040;7.472;2023-04-26T19:06:28;100039.59;;;8.95;100.00
58973;BME280;44750;52.040;7.472;2023-04-26T19:11:28;100139.19;;;9.06;100.00
58973;BME280;44750;52.040;7.472;2023-04-26T19:16:29;100122.91;;;8.90;100.00
58973;BME280;44750;52.040;7.472;2023-04-26T19:21:29;100176.63;;;9.01;100.00
58973;BME280;44750;52.040;7.472;2023-04-26T19:26:29;100201.41;;;8.96;100.00
58973;BME280;44750;52.040;7.472;2023-04-26T19:31:29;100215.88;;;8.95;100.00
58973;BME280;44750;52.040;7.472;2023-04-26T19:36:30;100238.88;;;8.81;100.00
58973;BME280;44750;52.040;7.472;2023-04-26T19:41:30;100258.22;;;8.77;100.00
58973;BME280;44750;52.040;7.472;2023-04-26T19:46:30;100253.34;;;8.62;100.00
58973;BME280;44750;52.040;7.472;2023-04-26T19:51:30;100294.66;;;8.63;100.00
58973;BME280;44750;52.040;7.472;2023-04-26T19:56:31;100324.00;;;8.48;100.00
58973;BME280;44750;52.040;7.472;2023-04-26T20:01:32;100367.16;;;8.48;100.00
58973;BME280;44750;52.040;7.472;2023-04-26T20:06:32;100391.97;;;8.51;100.00
58973;BME280;44750;52.040;7.472;2023-04-26T20:11:33;100397.97;;;8.45;100.00
58973;BME280;44750;52.040;7.472;2023-04-26T20:16:33;100414.31;;;8.24;100.00
58973;BME280;44750;52.040;7.472;2023-04-26T20:21:33;100437.72;;;8.33;100.00
58973;BME280;44750;52.040;7.472;2023-04-26T20:26:33;100458.47;;;8.13;100.00
58973;BME280;44750;52.040;7.472;2023-04-26T20:31:34;100546.59;;;8.13;100.00
58973;BME280;44750;52.040;7.472;2023-04-26T20:36:34;100540.50;;;8.20;100.00
58973;BME280;44750;52.040;7.472;2023-04-26T20:41:35;100513.81;;;8.17;100.00
58973;BME280;44750;52.040;7.472;2023-04-26T20:46:35;100538.22;;;8.26;100.00
58973;BME280;44750;52.040;7.472;2023-04-26T20:51:36;100530.16;;;8.16;100.00
58973;BME280;44750;52.040;7.472;2023-04-26T20:56:36;100524.03;;;8.04;100.00
58973;BME280;44750;52.040;7.472;2023-04-26T21:01:36;100534.66;;;8.06;100.00
58973;BME280;44750;52.040;7.472;2023-04-26T21:06:37;100557.66;;;8.00;100.00
58973;BME280;44750;52.040;7.472;2023-04-26T21:11:37;100559.50;;;8.09;100.00
58973;BME280;44750;52.040;7.472;2023-04-26T21:16:37;100550.69;;;7.97;100.00
58973;BME280;44750;52.040;7.472;2023-04-26T21:21:37;100575.53;;;8.11;100.00
58973;BME280;44750;52.040;7.472;2023-04-26T21:26:38;100556.25;;;8.06;100.00
58973;BME280;44750;52.040;7.472;2023-04-26T21:31:38;100563.19;;;8.08;100.00
58973;BME280;44750;52.040;7.472;2023-04-26T21:36:38;100549.97;;;7.95;100.00
58973;BME280;44750;52.040;7.472;2023-04-26T21:41:39;100547.00;;;7.89;100.00
58973;BME280;44750;52.040;7.472;2023-04-26T21:46:39;100525.00;;;7.74;100.00
58973;BME280;44750;52.040;7.472;2023-04-26T21:51:39;100575.50;;;7.81;100.00
58973;BME280;44750;52.040;7.472;2023-04-26T21:56:39;100561.16;;;7.71;100.00
58973;BME280;44750;52.040;7.472;2023-04-26T22:01:40;100570.78;;;7.74;100.00
58973;BME280;44750;52.040;7.472;2023-04-26T22:06:40;100550.50;;;7.60;100.00
58973;BME280;44750;52.040;7.472;2023-04-26T22:11:40;100575.56;;;7.50;100.00
58973;BME280;44750;52.040;7.472;2023-04-26T22:16:40;100572.94;;;7.39;100.00
58973;BME280;44750;52.040;7.472;2023-04-26T22:21:41;100573.63;;;7.31;100.00
58973;BME280;44750;52.040;7.472;2023-04-26T22:26:41;100569.00;;;7.12;100.00
58973;BME280;44750;52.040;7.472;2023-04-26T22:31:41;100589.72;;;7.12;100.00
58973;BME280;44750;52.040;7.472;2023-04-26T22:36:41;100575.94;;;6.84;100.00
58973;BME280;44750;52.040;7.472;2023-04-26T22:41:41;100589.78;;;6.79;100.00
58973;BME280;44750;52.040;7.472;2023-04-26T22:46:42;100593.06;;;6.83;100.00
58973;BME280;44750;52.040;7.472;2023-04-26T22:51:42;100596.16;;;6.78;100.00
58973;BME280;44750;52.040;7.472;2023-04-26T22:56:42;100594.47;;;6.77;100.00
58973;BME280;44750;52.040;7.472;2023-04-26T23:01:42;100579.63;;;6.62;100.00
58973;BME280;44750;52.040;7.472;2023-04-26T23:06:43;100564.09;;;6.33;100.00
58973;BME280;44750;52.040;7.472;2023-04-26T23:11:43;100562.94;;;6.26;100.00
58973;BME280;44750;52.040;7.472;2023-04-26T23:16:43;100543.78;;;6.19;100.00
58973;BME280;44750;52.040;7.472;2023-04-26T23:21:43;100534.91;;;6.07;100.00
58973;BME280;44750;52.040;7.472;2023-04-26T23:26:44;100531.25;;;5.97;100.00
58973;BME280;44750;52.040;7.472;2023-04-26T23:31:44;100512.72;;;5.82;100.00
58973;BME280;44750;52.040;7.472;2023-04-26T23:36:44;100504.22;;;5.77;100.00
58973;BME280;44750;52.040;7.472;2023-04-26T23:41:44;100498.59;;;5.80;100.00
58973;BME280;44750;52.040;7.472;2023-04-26T23:46:45;100481.03;;;5.65;100.00
58973;BME280;44750;52.040;7.472;2023-04-26T23:51:45;100478.75;;;5.60;100.00
58973;BME280;44750;52.040;7.472;2023-04-26T23:56:45;100467.31;;;5.47;100.00
